Time;durP1;ratioP1;P1;durP2;ratioP2;P2;SDS_P1;SDS_P2;PMS_P1;PMS_P2;Temp;Humidity;BMP_temperature;BMP_pressure;BME280_temperature;BME280_humidity;BME280_pressure;Samples;Min_cycle;Max_cycle;Signal;HPM_P1;HPM_P2
2023/09/26 00:01:00;;;;;;;8.00;5.47;;;;;;;14.17;71.56;101200.00;4066654;29;20036;-64
2023/09/26 00:03:06;;;;;;;11.25;5.00;;;;;;;14.15;71.71;101201.75;4067566;29;20064;-64
2023/09/26 00:05:09;;;;;;;11.73;5.95;;;;;;;14.09;72.30;101204.25;4067767;29;20044;-65
2023/09/26 00:07:13;;;;;;;10.10;5.63;;;;;;;14.08;71.48;101208.63;4067130;29;20032;-65
2023/09/26 00:09:16;;;;;;;8.98;6.05;;;;;;;14.09;71.98;101210.41;4067586;29;20040;-65
2023/09/26 00:11:20;;;;;;;7.15;4.93;;;;;;;14.07;71.41;101217.31;4067074;29;20047;-65
2023/09/26 00:13:22;;;;;;;10.13;5.35;;;;;;;14.06;71.83;101218.22;4067544;29;20143;-65
2023/09/26 00:15:26;;;;;;;10.07;5.40;;;;;;;14.03;72.24;101222.50;4067180;29;20048;-65
2023/09/26 00:17:28;;;;;;;7.35;4.93;;;;;;;14.00;72.03;101215.50;4065148;29;20067;-65
2023/09/26 00:19:31;;;;;;;9.63;5.47;;;;;;;14.00;72.08;101227.69;4067710;29;20048;-65
2023/09/26 00:21:32;;;;;;;10.05;4.90;;;;;;;14.00;72.23;101232.94;4066977;29;20054;-65
2023/09/26 00:23:37;;;;;;;7.38;4.45;;;;;;;13.95;71.83;101219.81;4067592;29;20654;-65
2023/09/26 00:25:40;;;;;;;;;;;;;;;13.78;72.84;101224.81;4068031;29;20040;-65
2023/09/26 00:27:43;;;;;;;9.15;5.40;;;;;;;13.77;72.88;101220.44;4064677;29;20018;-65
2023/09/26 00:29:46;;;;;;;8.87;4.80;;;;;;;13.78;72.00;101222.19;4067557;29;20068;-65
2023/09/26 00:31:50;;;;;;;9.80;5.47;;;;;;;13.77;72.37;101217.84;4081322;29;20446;-65
2023/09/26 00:33:53;;;;;;;10.43;5.28;;;;;;;13.77;72.03;101230.91;4066014;29;20055;-65
2023/09/26 00:35:56;;;;;;;10.68;4.97;;;;;;;13.75;72.50;101224.75;4081883;29;20070;-65
2023/09/26 00:37:59;;;;;;;14.02;5.30;;;;;;;13.72;72.52;101227.34;4062744;29;20036;-65
2023/09/26 00:40:23;;;;;;;9.77;5.13;;;;;;;13.70;72.73;101234.28;4064347;29;20140;-65
2023/09/26 00:42:26;;;;;;;7.40;4.43;;;;;;;13.68;72.19;101230.75;4081801;29;20122;-65
2023/09/26 00:44:30;;;;;;;10.85;5.60;;;;;;;13.72;72.15;101227.34;4078330;29;20068;-65
2023/09/26 00:46:34;;;;;;;12.82;5.10;;;;;;;13.73;72.15;101229.09;4081547;29;20115;-65
2023/09/26 00:48:39;;;;;;;8.88;4.63;;;;;;;13.72;72.12;101228.22;4065836;29;20040;-65
2023/09/26 00:50:43;;;;;;;9.02;5.28;;;;;;;13.75;71.74;101227.38;4065712;29;20040;-65
2023/09/26 00:52:49;;;;;;;12.73;5.17;;;;;;;13.76;71.50;101223.91;4066127;29;20040;-65
2023/09/26 00:54:52;;;;;;;8.88;4.40;;;;;;;13.73;71.66;101224.75;4064588;29;20308;-65
2023/09/26 00:56:57;;;;;;;9.93;4.55;;;;;;;13.74;71.72;101221.28;4081490;29;20040;-65
2023/09/26 00:59:00;;;;;;;9.13;5.57;;;;;;;13.75;71.71;101222.16;4065714;29;20495;-65
2023/09/26 01:01:05;;;;;;;11.25;6.00;;;;;;;13.77;71.29;101220.44;4065801;29;20046;-65
2023/09/26 01:03:08;;;;;;;8.60;4.97;;;;;;;13.72;71.14;101215.13;4066648;29;20043;-65
2023/09/26 01:05:10;;;;;;;11.80;5.32;;;;;;;13.72;71.59;101217.75;4066233;29;20071;-65
2023/09/26 01:07:13;;;;;;;8.90;5.38;;;;;;;13.71;71.13;101216.03;4065890;29;20055;-65
2023/09/26 01:09:17;;;;;;;9.35;5.18;;;;;;;13.69;71.68;101216.84;4065579;29;20453;-65
2023/09/26 01:11:20;;;;;;;8.52;4.60;;;;;;;13.63;71.78;101211.53;4080780;29;20047;-65
2023/09/26 01:13:24;;;;;;;8.00;4.50;;;;;;;13.63;71.40;101219.38;4064964;29;20071;-65
2023/09/26 01:15:30;;;;;;;12.77;4.75;;;;;;;13.60;71.28;101212.38;4066870;29;20051;-64
2023/09/26 01:17:34;;;;;;;9.35;4.90;;;;;;;13.57;71.76;101213.19;4073902;29;20067;-64
2023/09/26 01:19:36;;;;;;;10.98;5.28;;;;;;;13.57;71.89;101215.81;4081144;29;20488;-64
2023/09/26 01:21:40;;;;;;;8.90;4.88;;;;;;;13.56;72.25;101214.03;4065370;29;20048;-64
2023/09/26 01:23:49;;;;;;;6.97;4.63;;;;;;;13.52;72.08;101204.44;4065275;29;20059;-64
2023/09/26 01:25:54;;;;;;;9.55;4.78;;;;;;;13.56;71.89;101195.75;4080334;29;20046;-64
2023/09/26 01:28:01;;;;;;;;;;;;;;;13.44;72.62;101199.09;4079370;29;20047;-64
2023/09/26 01:30:06;;;;;;;9.13;5.50;;;;;;;13.44;72.70;101193.00;4065366;29;19994;-64
2023/09/26 01:32:09;;;;;;;10.75;5.53;;;;;;;13.49;72.70;101204.41;4080489;29;20044;-64
2023/09/26 01:34:12;;;;;;;8.75;5.13;;;;;;;13.51;72.62;101192.22;4081039;29;20037;-64
2023/09/26 01:36:15;;;;;;;8.77;5.55;;;;;;;13.52;72.74;101193.09;4081214;29;20118;-64
2023/09/26 01:38:19;;;;;;;7.60;4.45;;;;;;;13.52;73.21;101198.31;4065745;29;20070;-64
2023/09/26 01:40:21;;;;;;;10.25;5.22;;;;;;;13.53;73.21;101194.84;4080769;29;20134;-64
2023/09/26 01:42:25;;;;;;;6.60;4.45;;;;;;;13.57;73.01;101191.44;4081411;29;20039;-64
2023/09/26 01:44:30;;;;;;;9.77;5.10;;;;;;;13.57;73.17;101186.22;4066379;29;20048;-64
2023/09/26 01:46:33;;;;;;;9.80;4.88;;;;;;;13.59;73.13;101194.94;4065234;29;20048;-65
2023/09/26 01:48:38;;;;;;;9.20;5.43;;;;;;;13.60;72.67;101192.34;4081220;29;20043;-65
2023/09/26 01:50:40;;;;;;;10.50;5.57;;;;;;;13.60;73.21;101184.50;4081077;29;20039;-65
2023/09/26 01:52:43;;;;;;;8.40;4.90;;;;;;;13.58;73.47;101194.06;4065864;29;20119;-65
2023/09/26 01:54:46;;;;;;;7.47;4.78;;;;;;;13.53;73.35;101194.84;4063782;29;20048;-65
2023/09/26 01:56:49;;;;;;;7.80;5.00;;;;;;;13.53;73.44;101200.94;4066420;29;20036;-65
2023/09/26 01:58:53;;;;;;;11.07;5.60;;;;;;;13.44;73.80;101198.22;4081499;29;20087;-65
2023/09/26 02:00:56;;;;;;;7.43;5.25;;;;;;;13.39;73.46;101202.47;4080687;29;20143;-65
2023/09/26 02:02:59;;;;;;;8.68;5.13;;;;;;;13.36;73.56;101200.72;4063212;29;20051;-65
2023/09/26 02:05:02;;;;;;;8.30;5.60;;;;;;;13.39;73.57;101198.16;4065054;29;20052;-64
2023/09/26 02:07:05;;;;;;;7.00;4.35;;;;;;;13.41;73.56;101203.41;4065480;29;20040;-64
2023/09/26 02:09:09;;;;;;;6.55;4.72;;;;;;;13.37;73.03;101198.97;4064146;29;20032;-64
2023/09/26 02:11:11;;;;;;;8.55;5.53;;;;;;;13.28;73.19;101200.56;4065359;29;20044;-64
2023/09/26 02:13:14;;;;;;;8.50;5.22;;;;;;;13.30;73.15;101202.31;4080828;29;20075;-65
2023/09/26 02:15:19;;;;;;;8.60;5.00;;;;;;;13.34;73.57;101204.13;4081087;29;20040;-65
2023/09/26 02:17:22;;;;;;;8.23;5.28;;;;;;;13.35;73.08;101200.72;4081522;29;20142;-65
2023/09/26 02:19:25;;;;;;;8.82;5.47;;;;;;;13.36;73.07;101202.44;4084233;29;20507;-65
2023/09/26 02:21:28;;;;;;;7.90;5.07;;;;;;;13.36;72.76;101198.13;4083554;29;20055;-65
2023/09/26 02:23:32;;;;;;;9.13;6.00;;;;;;;13.37;72.68;101193.75;4069141;29;20091;-65
2023/09/26 02:25:35;;;;;;;6.97;5.00;;;;;;;13.39;72.26;101194.66;4068000;29;20143;-65
2023/09/26 02:27:37;;;;;;;8.15;5.45;;;;;;;13.41;72.03;101200.78;4067906;29;20079;-65
2023/09/26 02:29:39;;;;;;;8.07;5.40;;;;;;;13.37;71.73;101191.16;4069297;29;20047;-65
2023/09/26 02:31:44;;;;;;;10.93;6.05;;;;;;;13.35;71.98;101192.88;4065921;29;20044;-65
2023/09/26 02:33:47;;;;;;;7.93;5.50;;;;;;;13.33;71.95;101194.53;4067558;29;20433;-65
2023/09/26 02:35:49;;;;;;;10.00;5.78;;;;;;;13.32;71.62;101191.06;4067802;29;20047;-64
2023/09/26 02:37:52;;;;;;;8.52;5.72;;;;;;;13.29;71.62;101196.22;4068313;29;20036;-64
2023/09/26 02:39:55;;;;;;;8.43;5.78;;;;;;;13.26;71.68;101197.06;4069182;29;20511;-64
2023/09/26 02:41:58;;;;;;;8.52;5.25;;;;;;;13.25;71.92;101192.69;4068096;29;20048;-65
2023/09/26 02:44:03;;;;;;;12.05;5.55;;;;;;;13.23;71.94;101183.97;4081124;29;20557;-65
2023/09/26 02:46:07;;;;;;;8.25;5.10;;;;;;;13.22;72.06;101183.94;4079134;29;20032;-65
2023/09/26 02:48:11;;;;;;;9.93;4.83;;;;;;;13.20;72.09;101183.91;4083433;29;20035;-65
2023/09/26 02:50:14;;;;;;;8.60;4.97;;;;;;;13.19;72.08;101186.50;4082137;29;20044;-64
2023/09/26 02:52:16;;;;;;;10.65;5.82;;;;;;;13.16;71.91;101184.72;4083527;29;20523;-64
2023/09/26 02:54:19;;;;;;;6.75;4.97;;;;;;;13.13;72.62;101182.06;4068382;29;20032;-65
2023/09/26 02:56:22;;;;;;;7.95;5.45;;;;;;;13.13;72.70;101183.78;4067831;29;20224;-65
2023/09/26 02:58:25;;;;;;;10.10;5.75;;;;;;;13.12;72.38;101184.66;4067460;29;20400;-65
2023/09/26 03:00:28;;;;;;;9.00;4.97;;;;;;;13.13;72.53;101187.28;4083479;29;20044;-65
2023/09/26 03:02:30;;;;;;;8.07;5.68;;;;;;;13.11;72.45;101181.16;4066001;29;20088;-65
2023/09/26 03:04:34;;;;;;;7.45;5.10;;;;;;;13.09;72.92;101193.31;4069319;29;20068;-64
2023/09/26 03:06:37;;;;;;;8.90;6.55;;;;;;;13.06;73.07;101188.03;4069078;29;20040;-64
2023/09/26 03:08:40;;;;;;;9.73;5.60;;;;;;;13.05;72.68;101191.50;4083527;29;20070;-64
2023/09/26 03:10:43;;;;;;;7.40;5.47;;;;;;;13.06;73.10;101188.03;4069146;29;20099;-65
2023/09/26 03:12:46;;;;;;;8.27;5.63;;;;;;;13.04;72.61;101189.72;4067734;29;20050;-65
2023/09/26 03:14:50;;;;;;;10.88;5.68;;;;;;;13.03;73.11;101183.66;4067820;29;20070;-65
2023/09/26 03:16:53;;;;;;;7.70;5.90;;;;;;;13.04;72.70;101184.50;4069297;29;20448;-64
2023/09/26 03:18:56;;;;;;;8.95;5.25;;;;;;;13.01;73.10;101184.47;4083222;29;20055;-65
2023/09/26 03:21:03;;;;;;;8.23;6.13;;;;;;;12.99;73.15;101180.97;4068690;29;20042;-64
2023/09/26 03:23:07;;;;;;;7.50;5.28;;;;;;;12.96;73.30;101184.41;4067686;29;20047;-64
2023/09/26 03:25:11;;;;;;;9.88;6.15;;;;;;;12.90;73.21;101176.47;4083197;29;20099;-64
2023/09/26 03:27:14;;;;;;;11.48;6.75;;;;;;;12.85;73.61;101176.41;4064345;29;20119;-64
2023/09/26 03:29:18;;;;;;;7.95;5.95;;;;;;;12.83;73.69;101169.41;4082810;29;20047;-64
2023/09/26 03:31:21;;;;;;;9.15;5.82;;;;;;;12.82;73.92;101168.53;4068548;29;20096;-64
2023/09/26 03:33:24;;;;;;;9.02;6.05;;;;;;;12.84;73.70;101168.56;4068719;29;20048;-64
2023/09/26 03:35:27;;;;;;;9.57;5.40;;;;;;;12.85;73.65;101173.81;4067606;29;20040;-64
2023/09/26 03:37:31;;;;;;;10.57;6.25;;;;;;;12.85;73.84;101173.81;4068606;29;20046;-64
2023/09/26 03:39:34;;;;;;;6.80;4.90;;;;;;;12.83;74.01;101183.31;4067268;29;20090;-65
2023/09/26 03:41:37;;;;;;;8.15;5.35;;;;;;;12.82;74.10;101176.38;4067183;29;20686;-65
2023/09/26 03:43:40;;;;;;;8.07;4.90;;;;;;;12.81;73.87;101174.59;4068487;29;20060;-65
2023/09/26 03:45:43;;;;;;;9.88;5.35;;;;;;;12.76;73.91;101173.63;4068447;29;20099;-65
2023/09/26 03:47:46;;;;;;;8.75;5.80;;;;;;;12.72;74.25;101177.06;4068588;29;20040;-65
2023/09/26 03:49:52;;;;;;;7.82;5.82;;;;;;;12.71;74.11;101183.13;4068454;29;20040;-65
2023/09/26 03:51:55;;;;;;;11.13;6.88;;;;;;;12.65;74.42;101169.97;4067864;29;20534;-64
2023/09/26 03:53:59;;;;;;;8.30;6.22;;;;;;;12.67;74.63;101176.97;4067802;29;20076;-64
2023/09/26 03:56:02;;;;;;;8.75;5.95;;;;;;;12.66;74.58;101175.22;4065024;29;20064;-64
2023/09/26 03:58:05;;;;;;;10.07;5.95;;;;;;;12.66;74.47;101171.72;4068254;29;20119;-64
2023/09/26 04:00:15;;;;;;;10.52;6.72;;;;;;;12.62;75.17;101172.53;4063909;29;20040;-64
2023/09/26 04:02:18;;;;;;;10.10;6.60;;;;;;;12.58;75.03;101180.28;4068204;29;20411;-64
2023/09/26 04:04:21;;;;;;;10.50;7.68;;;;;;;12.55;74.81;101175.03;4067967;29;20095;-65
2023/09/26 04:06:24;;;;;;;10.48;6.45;;;;;;;12.56;74.82;101171.56;4067613;29;20444;-65
2023/09/26 04:08:27;;;;;;;11.02;6.68;;;;;;;12.57;74.70;101172.44;4068283;29;20043;-65
2023/09/26 04:10:36;;;;;;;8.32;4.10;;;;;;;12.73;76.23;101168.38;4067965;29;20071;-58
2023/09/26 04:12:40;;;;;;;5.43;3.50;;;;;;;13.23;77.84;101175.25;4063823;29;20099;-59
2023/09/26 04:14:43;;;;;;;12.27;7.10;;;;;;;13.61;75.59;101167.97;4068341;29;20564;-64
2023/09/26 04:16:47;;;;;;;10.35;6.40;;;;;;;13.57;72.82;101171.41;4067871;29;20543;-64
2023/09/26 04:18:49;;;;;;;11.18;7.22;;;;;;;13.39;72.53;101174.66;4067888;29;20032;-64
2023/09/26 04:20:52;;;;;;;9.07;6.68;;;;;;;13.22;72.55;101169.13;4067169;29;20035;-64
2023/09/26 04:22:55;;;;;;;11.50;7.25;;;;;;;13.11;73.13;101168.09;4067987;29;20091;-64
2023/09/26 04:24:58;;;;;;;10.52;7.45;;;;;;;13.01;73.21;101174.94;4065123;29;20044;-64
2023/09/26 04:27:02;;;;;;;11.57;6.97;;;;;;;12.93;73.24;101174.78;4064668;29;20036;-64
2023/09/26 04:29:05;;;;;;;8.43;6.25;;;;;;;12.84;73.47;101164.22;4060546;29;20044;-64
2023/09/26 04:31:12;;;;;;;8.75;7.03;;;;;;;12.79;73.54;101165.88;4067331;29;20051;-64
2023/09/26 04:33:16;;;;;;;8.60;6.15;;;;;;;12.73;73.75;101168.38;4068303;29;20044;-64
2023/09/26 04:35:19;;;;;;;10.32;6.00;;;;;;;12.67;73.82;101170.88;4066815;29;20044;-64
2023/09/26 04:37:22;;;;;;;7.10;5.47;;;;;;;12.66;74.35;101170.00;4068277;29;20131;-64
2023/09/26 04:39:25;;;;;;;9.07;6.32;;;;;;;12.63;74.11;101163.84;4067954;29;20040;-64
2023/09/26 04:41:28;;;;;;;8.05;6.47;;;;;;;12.62;74.40;101176.03;4067655;29;20092;-64
2023/09/26 04:43:33;;;;;;;9.50;6.88;;;;;;;12.61;74.22;101170.78;4068524;29;20044;-64
2023/09/26 04:45:36;;;;;;;8.70;6.85;;;;;;;12.60;74.16;101177.72;4068161;29;20040;-64
2023/09/26 04:47:39;;;;;;;8.20;6.03;;;;;;;12.54;74.36;101168.06;4068329;29;20040;-64
2023/09/26 04:49:42;;;;;;;11.90;6.75;;;;;;;12.49;74.46;101172.31;4065519;29;20037;-64
2023/09/26 04:51:45;;;;;;;8.48;6.80;;;;;;;12.49;74.71;101176.66;4059690;29;20047;-64
2023/09/26 04:53:48;;;;;;;10.95;6.28;;;;;;;12.47;74.60;101179.25;4066526;29;20103;-64
2023/09/26 04:55:50;;;;;;;9.45;6.47;;;;;;;12.44;74.57;101176.59;4067689;29;20044;-64
2023/09/26 04:57:53;;;;;;;9.15;6.78;;;;;;;12.38;74.97;101181.66;4066406;29;20048;-64
2023/09/26 04:59:57;;;;;;;8.73;5.65;;;;;;;12.38;75.17;101186.88;4058869;29;20051;-64
2023/09/26 05:02:00;;;;;;;11.43;7.13;;;;;;;12.35;74.76;101181.59;4067426;29;20052;-64
2023/09/26 05:04:03;;;;;;;10.35;6.63;;;;;;;12.35;75.32;101186.81;4067887;29;20131;-64
2023/09/26 05:06:07;;;;;;;9.13;6.38;;;;;;;12.37;74.99;101185.13;4066896;29;20040;-64
2023/09/26 05:08:10;;;;;;;10.30;7.95;;;;;;;12.37;75.54;101185.13;4067305;29;20576;-64
2023/09/26 05:10:14;;;;;;;9.85;7.00;;;;;;;12.38;75.26;101182.56;4073380;29;20435;-64
2023/09/26 05:12:17;;;;;;;8.00;6.30;;;;;;;12.36;75.20;101183.38;4067095;29;20036;-64
2023/09/26 05:14:20;;;;;;;11.40;7.65;;;;;;;12.35;75.50;101182.50;4065885;29;20040;-64
2023/09/26 05:16:24;;;;;;;10.43;7.32;;;;;;;12.38;75.13;101174.75;4064501;29;20036;-64
2023/09/26 05:18:27;;;;;;;16.13;7.90;;;;;;;12.40;75.23;101180.84;4066318;29;20058;-64
2023/09/26 05:20:30;;;;;;;9.45;7.28;;;;;;;12.39;75.12;101173.88;4066762;29;21777;-64
2023/09/26 05:22:33;;;;;;;11.63;6.50;;;;;;;12.42;74.91;101183.47;4060909;29;20103;-64
2023/09/26 05:24:36;;;;;;;11.93;6.35;;;;;;;12.42;74.27;101183.47;4064762;29;20104;-64
2023/09/26 05:26:39;;;;;;;9.98;6.25;;;;;;;12.40;74.46;101179.97;4066776;29;20071;-64
2023/09/26 05:28:42;;;;;;;11.30;7.05;;;;;;;12.40;74.67;101180.84;4067289;29;20048;-64
2023/09/26 05:30:46;;;;;;;11.07;7.78;;;;;;;12.37;74.54;101179.94;4073529;29;20310;-64
2023/09/26 05:32:50;;;;;;;10.23;6.93;;;;;;;12.33;75.00;101183.31;4064609;29;20040;-64
2023/09/26 05:34:53;;;;;;;10.23;7.00;;;;;;;12.32;74.91;101185.03;4066103;29;20058;-64
2023/09/26 05:36:56;;;;;;;11.15;7.40;;;;;;;12.34;74.95;101185.09;4066616;29;20076;-64
2023/09/26 05:38:59;;;;;;;13.02;7.82;;;;;;;12.36;74.31;101189.47;4065011;29;20399;-64
2023/09/26 05:41:02;;;;;;;12.50;7.38;;;;;;;12.38;74.55;101195.59;4066384;29;20471;-64
2023/09/26 05:43:05;;;;;;;13.52;8.07;;;;;;;12.37;74.62;101198.19;4067164;29;20072;-64
2023/09/26 05:45:11;;;;;;;12.75;7.45;;;;;;;12.39;74.48;101196.47;4061645;29;20436;-64
2023/09/26 05:47:16;;;;;;;14.73;7.50;;;;;;;12.39;74.67;101197.34;4049993;29;20116;-64
2023/09/26 05:49:27;;;;;;;9.75;7.30;;;;;;;12.38;74.84;101195.59;4063282;29;20123;-64
2023/09/26 05:51:35;;;;;;;10.52;6.68;;;;;;;12.33;75.23;101194.63;4065307;29;20044;-64
2023/09/26 05:53:46;;;;;;;12.35;7.70;;;;;;;12.34;75.49;101195.53;4070626;29;20091;-64
2023/09/26 05:55:58;;;;;;;10.68;7.20;;;;;;;12.34;75.65;101190.31;4068469;29;20044;-65
2023/09/26 05:58:05;;;;;;;9.27;6.80;;;;;;;12.37;75.22;101191.22;4065023;29;20044;-65
2023/09/26 06:00:13;;;;;;;11.15;7.22;;;;;;;12.40;75.27;101185.19;4076678;29;20040;-65
2023/09/26 06:02:17;;;;;;;11.20;7.82;;;;;;;12.43;75.58;101195.69;4065200;29;20111;-65
2023/09/26 06:04:20;;;;;;;10.68;7.72;;;;;;;12.46;75.68;101194.88;4068784;29;20469;-64
2023/09/26 06:06:25;;;;;;;17.33;8.15;;;;;;;12.49;75.83;101198.38;4072312;29;20485;-64
2023/09/26 06:08:28;;;;;;;9.75;5.10;;;;;;;12.62;77.00;101201.25;4069154;29;20591;-61
2023/09/26 06:10:31;;;;;;;10.38;5.60;;;;;;;13.06;78.71;101199.34;4062952;29;20044;-61
2023/09/26 06:12:32;;;;;;;11.98;8.30;;;;;;;13.33;76.39;101202.38;4069014;29;20044;-64
2023/09/26 06:14:35;;;;;;;12.73;8.80;;;;;;;13.26;75.48;101202.28;4065011;29;20068;-64
2023/09/26 06:16:39;;;;;;;13.98;8.40;;;;;;;13.15;75.21;101193.41;4069440;29;20036;-64
2023/09/26 06:18:42;;;;;;;13.88;8.38;;;;;;;13.07;75.40;101201.13;4070111;29;20082;-64
2023/09/26 06:20:45;;;;;;;11.15;8.18;;;;;;;13.04;75.81;101206.28;4071877;29;20063;-64
2023/09/26 06:22:50;;;;;;;15.45;8.55;;;;;;;13.03;75.59;101209.75;4085873;29;20500;-64
2023/09/26 06:37:18;;;;;;;12.98;8.00;;;;;;;13.59;74.66;101216.72;4278215;27;20408;-71
2023/09/26 06:39:22;;;;;;;10.63;7.65;;;;;;;13.48;75.66;101212.19;4232482;28;20039;-72
2023/09/26 06:41:26;;;;;;;12.23;8.02;;;;;;;13.43;75.27;101210.41;4242726;22;20506;-67
2023/09/26 06:43:30;;;;;;;12.15;8.70;;;;;;;13.42;75.40;101218.22;4219475;28;20078;-67
2023/09/26 06:45:33;;;;;;;13.63;9.18;;;;;;;13.40;75.67;101212.09;4219961;28;20048;-66
2023/09/26 06:47:35;;;;;;;18.42;9.02;;;;;;;13.40;75.82;101215.59;4215015;28;20036;-66
2023/09/26 06:49:38;;;;;;;21.83;11.13;;;;;;;13.40;75.50;101209.47;4206886;28;20106;-66
2023/09/26 06:51:41;;;;;;;22.52;10.00;;;;;;;13.41;75.57;101206.00;4207799;28;20036;-65
2023/09/26 06:53:46;;;;;;;15.50;9.05;;;;;;;13.43;75.44;101209.50;4207936;28;20580;-66
2023/09/26 06:55:49;;;;;;;14.02;8.88;;;;;;;13.44;75.50;101211.28;4207244;28;20123;-66
2023/09/26 06:57:52;;;;;;;24.33;11.57;;;;;;;13.45;75.08;101213.03;4206490;28;21723;-66
2023/09/26 07:03:27;;;;;;;23.15;11.68;;;;;;;13.42;74.74;101218.22;4196195;28;20064;-66
2023/09/26 07:05:29;;;;;;;16.42;9.35;;;;;;;13.47;74.76;101219.16;4197374;28;20127;-66
2023/09/26 07:07:32;;;;;;;15.25;10.13;;;;;;;13.50;74.41;101220.94;4207747;28;20028;-66
2023/09/26 07:09:38;;;;;;;13.65;10.05;;;;;;;13.52;74.11;101217.50;4207565;28;20029;-66
2023/09/26 07:11:41;;;;;;;15.85;10.43;;;;;;;13.55;73.51;101229.69;4206521;28;20082;-67
2023/09/26 07:13:44;;;;;;;17.98;9.15;;;;;;;13.57;73.46;101223.66;4205343;28;20036;-66
2023/09/26 07:16:00;;;;;;;15.93;9.82;;;;;;;13.58;73.61;101224.50;4203115;28;20036;-65
2023/09/26 07:18:06;;;;;;;18.30;9.10;;;;;;;13.63;73.67;101222.00;4205355;28;20047;-65
2023/09/26 07:20:13;;;;;;;16.70;9.35;;;;;;;13.68;73.68;101218.59;4206019;28;20342;-66
2023/09/26 07:22:16;;;;;;;18.77;10.05;;;;;;;13.71;73.42;101221.25;4206588;28;20609;-66
2023/09/26 07:24:19;;;;;;;17.65;9.45;;;;;;;13.75;72.81;101219.53;4207172;28;20051;-67
2023/09/26 07:26:26;;;;;;;21.30;10.00;;;;;;;13.78;72.71;101223.09;4207272;28;20395;-67
2023/09/26 07:28:30;;;;;;;24.20;9.82;;;;;;;13.83;72.75;101227.47;4205608;28;20040;-65
2023/09/26 07:30:32;;;;;;;15.27;9.57;;;;;;;13.85;73.16;101221.41;4205177;28;20082;-65
2023/09/26 07:32:36;;;;;;;15.35;10.23;;;;;;;13.90;72.99;101211.91;4203130;28;20044;-68
2023/09/26 07:34:38;;;;;;;15.95;9.40;;;;;;;13.93;73.22;101227.63;4203263;28;20041;-68
2023/09/26 07:36:41;;;;;;;16.63;10.27;;;;;;;13.98;73.15;101224.19;4198591;28;20495;-70
2023/09/26 07:38:45;;;;;;;14.15;9.88;;;;;;;14.05;71.64;101220.81;4157021;28;20793;-66
2023/09/26 07:40:48;;;;;;;15.13;9.23;;;;;;;14.07;71.54;101219.94;4194335;28;20575;-66
2023/09/26 07:42:52;;;;;;;13.70;10.57;;;;;;;14.16;72.04;101219.16;4191908;28;20094;-68
2023/09/26 07:44:56;;;;;;;16.80;11.13;;;;;;;14.20;71.68;101210.50;4173441;28;20033;-68
2023/09/26 07:46:59;;;;;;;15.13;10.63;;;;;;;14.27;71.94;101217.56;4169559;28;20124;-68
2023/09/26 07:49:02;;;;;;;13.73;9.90;;;;;;;14.30;71.37;101212.38;4174951;28;20299;-68
2023/09/26 07:51:06;;;;;;;15.57;11.07;;;;;;;14.36;71.88;101214.16;4197492;28;20549;-67
2023/09/26 07:53:10;;;;;;;19.73;9.68;;;;;;;14.47;72.25;101214.28;4196756;28;20043;-67
2023/09/26 07:55:13;;;;;;;17.17;9.80;;;;;;;14.51;71.37;101213.44;4179940;28;20175;-68
2023/09/26 07:57:16;;;;;;;20.80;12.43;;;;;;;14.55;71.54;101210.00;4180219;28;20048;-68
2023/09/26 07:59:20;;;;;;;16.23;10.43;;;;;;;14.62;71.04;101211.84;4173508;28;20127;-68
2023/09/26 08:01:23;;;;;;;16.63;11.25;;;;;;;14.62;72.04;101209.25;4179606;28;20044;-68
2023/09/26 08:03:25;;;;;;;22.13;12.63;;;;;;;14.70;71.33;101201.44;4180037;28;20045;-68
2023/09/26 08:05:38;;;;;;;18.83;12.57;;;;;;;14.75;71.08;101209.38;4191674;28;20043;-67
2023/09/26 08:07:42;;;;;;;17.00;11.88;;;;;;;14.80;70.80;101211.13;4179233;28;20075;-68
2023/09/26 08:09:46;;;;;;;16.15;11.35;;;;;;;14.84;71.16;101205.06;4197964;28;20779;-67
2023/09/26 08:11:48;;;;;;;21.52;12.63;;;;;;;14.90;70.90;101204.25;4197220;28;20063;-67
2023/09/26 08:13:52;;;;;;;24.00;15.03;;;;;;;15.15;69.57;101201.81;4179721;28;20511;-67
2023/09/26 08:15:57;;;;;;;19.20;13.52;;;;;;;15.14;69.70;101203.56;4194958;28;21407;-67
2023/09/26 08:17:59;;;;;;;26.60;16.00;;;;;;;15.07;70.01;101201.78;4195174;28;20531;-67
2023/09/26 08:20:02;;;;;;;20.52;15.30;;;;;;;15.10;70.46;101206.13;4176186;28;20056;-66
2023/09/26 08:22:05;;;;;;;26.25;16.67;;;;;;;15.17;70.65;101206.22;4195093;28;20032;-68
2023/09/26 08:24:08;;;;;;;24.52;16.27;;;;;;;15.21;70.13;101203.63;4192449;28;20032;-67
2023/09/26 08:26:11;;;;;;;22.15;15.07;;;;;;;15.25;70.11;101201.03;4193034;28;20040;-67
2023/09/26 08:28:14;;;;;;;21.55;14.20;;;;;;;15.31;70.88;101211.53;4191728;28;20094;-69
2023/09/26 08:30:17;;;;;;;25.00;16.05;;;;;;;15.40;70.40;101208.09;4194967;28;20044;-67
2023/09/26 08:32:21;;;;;;;20.75;14.07;;;;;;;15.43;70.28;101210.72;4194011;28;20040;-68
2023/09/26 08:34:25;;;;;;;27.35;16.13;;;;;;;15.49;69.67;101215.13;4196849;28;20037;-67
2023/09/26 08:36:28;;;;;;;35.80;20.35;;;;;;;15.59;69.14;101206.47;4197513;28;20064;-67
2023/09/26 08:38:31;;;;;;;30.90;21.27;;;;;;;15.60;68.88;101213.47;4196930;28;20041;-68
2023/09/26 08:40:34;;;;;;;26.55;18.38;;;;;;;15.60;69.64;101202.97;4189101;28;20064;-68
2023/09/26 08:42:37;;;;;;;37.78;21.35;;;;;;;15.67;69.00;101203.91;4195639;28;20036;-67
2023/09/26 08:44:40;;;;;;;30.02;15.38;;;;;;;15.67;68.50;101207.38;4195587;28;20518;-67
2023/09/26 08:46:45;;;;;;;28.38;16.27;;;;;;;15.75;68.92;101198.69;4194797;28;20044;-67
2023/09/26 08:48:49;;;;;;;;;;;;;;;15.76;68.81;101205.69;4192189;28;20045;-67
2023/09/26 08:50:52;;;;;;;30.48;13.05;;;;;;;15.82;69.00;101190.03;4194924;28;19920;-67
2023/09/26 08:52:58;;;;;;;25.33;12.45;;;;;;;15.91;68.93;101195.28;4193195;28;20449;-67
2023/09/26 08:55:02;;;;;;;21.42;12.13;;;;;;;16.00;68.21;101184.84;4194857;28;20044;-67
2023/09/26 08:57:05;;;;;;;22.77;11.77;;;;;;;16.10;68.40;101187.50;4195532;28;20033;-67
2023/09/26 08:59:09;;;;;;;17.20;11.70;;;;;;;16.16;68.14;101184.88;4176517;28;20303;-67
2023/09/26 09:01:12;;;;;;;20.75;11.93;;;;;;;16.22;67.76;101183.16;4191855;28;20439;-68
2023/09/26 09:03:15;;;;;;;17.10;10.68;;;;;;;16.31;67.98;101184.03;4193177;28;20044;-68
2023/09/26 09:05:20;;;;;;;23.23;11.23;;;;;;;16.36;67.92;101177.06;4193550;28;20041;-67
2023/09/26 09:07:24;;;;;;;15.25;9.68;;;;;;;16.43;68.00;101176.22;4196663;28;20063;-68
2023/09/26 09:09:26;;;;;;;15.25;9.43;;;;;;;16.52;67.75;101177.97;4175351;28;20388;-68
2023/09/26 09:11:33;;;;;;;11.88;9.10;;;;;;;16.59;67.21;101177.09;4178195;28;20114;-68
2023/09/26 09:13:38;;;;;;;12.38;9.43;;;;;;;16.69;67.39;101170.09;4196230;28;20056;-68
2023/09/26 09:15:41;;;;;;;12.20;9.20;;;;;;;16.73;67.16;101174.47;4193172;28;20494;-66
2023/09/26 09:17:45;;;;;;;14.68;9.32;;;;;;;16.82;66.95;101173.59;4179169;28;20036;-68
2023/09/26 09:19:50;;;;;;;14.70;9.75;;;;;;;16.88;66.79;101174.50;4190678;28;20032;-68
2023/09/26 09:22:14;;;;;;;11.52;8.65;;;;;;;17.00;66.58;101168.38;4189074;28;20059;-68
2023/09/26 09:24:17;;;;;;;12.85;8.60;;;;;;;17.15;66.46;101171.88;4184615;28;20059;-69
2023/09/26 09:26:22;;;;;;;16.33;9.43;;;;;;;17.27;65.28;101174.44;4181446;28;20045;-68
2023/09/26 09:28:25;;;;;;;12.80;8.02;;;;;;;17.29;65.43;101167.47;4187153;28;20037;-68
2023/09/26 09:30:28;;;;;;;14.55;10.23;;;;;;;17.57;64.08;101156.88;4182708;28;20037;-67
2023/09/26 09:32:31;;;;;;;13.63;8.20;;;;;;;17.52;64.53;101158.63;4188208;28;20041;-67
2023/09/26 09:34:35;;;;;;;14.35;9.07;;;;;;;17.50;64.93;101166.50;4186625;28;20336;-69
2023/09/26 09:36:40;;;;;;;10.77;8.35;;;;;;;17.56;64.43;101163.00;4189224;28;20044;-68
2023/09/26 09:38:44;;;;;;;11.93;8.25;;;;;;;17.65;64.44;101156.84;4190420;28;20064;-68
2023/09/26 09:40:48;;;;;;;14.95;9.00;;;;;;;17.86;64.26;101156.75;4195484;28;20396;-67
2023/09/26 09:42:52;;;;;;;14.90;9.63;;;;;;;18.20;62.29;101151.31;4196942;28;20032;-67
2023/09/26 09:44:56;;;;;;;13.18;8.98;;;;;;;18.02;63.14;101147.06;4182621;28;20050;-67
2023/09/26 09:47:03;;;;;;;11.63;7.45;;;;;;;17.97;64.35;101148.81;4187039;28;20067;-68